sensor_id;sensor_type;location;lat;lon;timestamp;P1;durP1;ratioP1;P2;durP2;ratioP2
3297;SDS011;1661;53.572;10.174;2023-06-22T00:00:46;5.77;;;5.10;;
3297;SDS011;1661;53.572;10.174;2023-06-22T00:03:12;8.63;;;5.30;;
3297;SDS011;1661;53.572;10.174;2023-06-22T00:05:40;6.30;;;5.70;;
3297;SDS011;1661;53.572;10.174;2023-06-22T00:08:07;5.73;;;5.33;;
3297;SDS011;1661;53.572;10.174;2023-06-22T00:10:34;5.20;;;4.77;;
3297;SDS011;1661;53.572;10.174;2023-06-22T00:13:01;8.40;;;5.67;;
3297;SDS011;1661;53.572;10.174;2023-06-22T00:15:27;6.57;;;5.97;;
3297;SDS011;1661;53.572;10.174;2023-06-22T00:17:54;8.33;;;5.50;;
3297;SDS011;1661;53.572;10.174;2023-06-22T00:20:22;6.97;;;6.23;;
3297;SDS011;1661;53.572;10.174;2023-06-22T00:22:54;5.87;;;4.97;;
3297;SDS011;1661;53.572;10.174;2023-06-22T00:25:21;6.90;;;5.27;;
3297;SDS011;1661;53.572;10.174;2023-06-22T00:27:48;6.20;;;5.60;;
3297;SDS011;1661;53.572;10.174;2023-06-22T00:30:16;6.23;;;5.63;;
3297;SDS011;1661;53.572;10.174;2023-06-22T00:32:43;6.17;;;5.67;;
3297;SDS011;1661;53.572;10.174;2023-06-22T00:35:11;6.00;;;5.40;;
3297;SDS011;1661;53.572;10.174;2023-06-22T00:37:38;6.50;;;5.90;;
3297;SDS011;1661;53.572;10.174;2023-06-22T00:40:10;8.17;;;5.60;;
3297;SDS011;1661;53.572;10.174;2023-06-22T00:42:38;6.67;;;5.90;;
3297;SDS011;1661;53.572;10.174;2023-06-22T00:45:06;6.40;;;5.67;;
3297;SDS011;1661;53.572;10.174;2023-06-22T00:47:33;5.80;;;5.40;;
3297;SDS011;1661;53.572;10.174;2023-06-22T00:50:00;6.80;;;6.00;;
3297;SDS011;1661;53.572;10.174;2023-06-22T00:52:28;5.20;;;4.37;;
3297;SDS011;1661;53.572;10.174;2023-06-22T00:54:56;5.33;;;4.83;;
3297;SDS011;1661;53.572;10.174;2023-06-22T00:57:24;5.67;;;4.60;;
3297;SDS011;1661;53.572;10.174;2023-06-22T00:59:53;4.67;;;4.30;;
3297;SDS011;1661;53.572;10.174;2023-06-22T01:02:20;4.80;;;4.40;;
3297;SDS011;1661;53.572;10.174;2023-06-22T01:04:47;4.63;;;4.30;;
3297;SDS011;1661;53.572;10.174;2023-06-22T01:07:16;6.30;;;5.40;;
3297;SDS011;1661;53.572;10.174;2023-06-22T01:09:49;7.33;;;5.60;;
3297;SDS011;1661;53.572;10.174;2023-06-22T01:12:24;6.07;;;5.47;;
3297;SDS011;1661;53.572;10.174;2023-06-22T01:14:58;6.93;;;6.23;;
3297;SDS011;1661;53.572;10.174;2023-06-22T01:17:29;5.93;;;5.40;;
3297;SDS011;1661;53.572;10.174;2023-06-22T01:19:57;6.27;;;5.67;;
3297;SDS011;1661;53.572;10.174;2023-06-22T01:22:26;5.10;;;4.63;;
3297;SDS011;1661;53.572;10.174;2023-06-22T01:24:58;5.90;;;5.40;;
3297;SDS011;1661;53.572;10.174;2023-06-22T01:27:38;7.20;;;6.60;;
3297;SDS011;1661;53.572;10.174;2023-06-22T01:30:14;7.93;;;6.90;;
3297;SDS011;1661;53.572;10.174;2023-06-22T01:32:44;6.80;;;6.20;;
3297;SDS011;1661;53.572;10.174;2023-06-22T01:35:11;6.20;;;5.63;;
3297;SDS011;1661;53.572;10.174;2023-06-22T01:37:40;7.40;;;6.77;;
3297;SDS011;1661;53.572;10.174;2023-06-22T01:40:07;7.00;;;6.00;;
3297;SDS011;1661;53.572;10.174;2023-06-22T01:42:35;6.97;;;6.30;;
3297;SDS011;1661;53.572;10.174;2023-06-22T01:45:04;7.40;;;6.70;;
3297;SDS011;1661;53.572;10.174;2023-06-22T01:47:34;6.13;;;5.43;;
3297;SDS011;1661;53.572;10.174;2023-06-22T01:50:01;6.90;;;6.00;;
3297;SDS011;1661;53.572;10.174;2023-06-22T01:52:28;9.07;;;6.17;;
3297;SDS011;1661;53.572;10.174;2023-06-22T01:54:55;8.30;;;6.63;;
3297;SDS011;1661;53.572;10.174;2023-06-22T01:57:22;7.13;;;6.53;;
3297;SDS011;1661;53.572;10.174;2023-06-22T01:59:51;8.23;;;7.50;;
3297;SDS011;1661;53.572;10.174;2023-06-22T02:02:26;6.27;;;5.77;;
3297;SDS011;1661;53.572;10.174;2023-06-22T02:04:58;9.53;;;6.73;;
3297;SDS011;1661;53.572;10.174;2023-06-22T02:07:28;6.50;;;6.00;;
3297;SDS011;1661;53.572;10.174;2023-06-22T02:09:58;6.47;;;5.97;;
3297;SDS011;1661;53.572;10.174;2023-06-22T02:12:26;4.83;;;4.43;;
3297;SDS011;1661;53.572;10.174;2023-06-22T02:14:54;5.80;;;5.03;;
3297;SDS011;1661;53.572;10.174;2023-06-22T02:17:21;6.90;;;6.20;;
3297;SDS011;1661;53.572;10.174;2023-06-22T02:19:49;8.20;;;7.07;;
3297;SDS011;1661;53.572;10.174;2023-06-22T02:22:18;8.30;;;7.47;;
3297;SDS011;1661;53.572;10.174;2023-06-22T02:24:45;6.53;;;5.93;;
3297;SDS011;1661;53.572;10.174;2023-06-22T02:27:12;11.60;;;6.30;;
3297;SDS011;1661;53.572;10.174;2023-06-22T02:29:38;6.00;;;5.50;;
3297;SDS011;1661;53.572;10.174;2023-06-22T02:32:06;5.90;;;5.30;;
3297;SDS011;1661;53.572;10.174;2023-06-22T02:34:33;5.67;;;5.27;;
3297;SDS011;1661;53.572;10.174;2023-06-22T02:37:01;6.90;;;6.03;;
3297;SDS011;1661;53.572;10.174;2023-06-22T02:39:30;8.57;;;7.13;;
3297;SDS011;1661;53.572;10.174;2023-06-22T02:41:57;6.13;;;5.53;;
3297;SDS011;1661;53.572;10.174;2023-06-22T02:44:23;8.83;;;6.73;;
3297;SDS011;1661;53.572;10.174;2023-06-22T02:46:50;9.20;;;6.43;;
3297;SDS011;1661;53.572;10.174;2023-06-22T02:49:17;8.20;;;7.50;;
3297;SDS011;1661;53.572;10.174;2023-06-22T02:51:45;7.57;;;6.10;;
3297;SDS011;1661;53.572;10.174;2023-06-22T02:54:12;9.50;;;7.00;;
3297;SDS011;1661;53.572;10.174;2023-06-22T02:56:40;11.17;;;7.50;;
3297;SDS011;1661;53.572;10.174;2023-06-22T02:59:08;6.97;;;6.33;;
3297;SDS011;1661;53.572;10.174;2023-06-22T03:01:36;5.07;;;4.57;;
3297;SDS011;1661;53.572;10.174;2023-06-22T03:04:04;8.33;;;7.20;;
3297;SDS011;1661;53.572;10.174;2023-06-22T03:06:32;6.40;;;5.90;;
3297;SDS011;1661;53.572;10.174;2023-06-22T03:08:59;7.70;;;7.00;;
3297;SDS011;1661;53.572;10.174;2023-06-22T03:11:28;6.30;;;5.70;;
3297;SDS011;1661;53.572;10.174;2023-06-22T03:13:57;10.40;;;7.00;;
3297;SDS011;1661;53.572;10.174;2023-06-22T03:16:24;12.03;;;8.33;;
3297;SDS011;1661;53.572;10.174;2023-06-22T03:18:51;12.67;;;7.47;;
3297;SDS011;1661;53.572;10.174;2023-06-22T03:21:18;8.07;;;7.27;;
3297;SDS011;1661;53.572;10.174;2023-06-22T03:23:45;8.07;;;7.27;;
3297;SDS011;1661;53.572;10.174;2023-06-22T03:26:12;9.23;;;7.70;;
3297;SDS011;1661;53.572;10.174;2023-06-22T03:28:38;10.00;;;6.73;;
3297;SDS011;1661;53.572;10.174;2023-06-22T03:31:06;8.07;;;7.30;;
3297;SDS011;1661;53.572;10.174;2023-06-22T03:33:34;7.87;;;7.17;;
3297;SDS011;1661;53.572;10.174;2023-06-22T03:36:01;11.23;;;8.63;;
3297;SDS011;1661;53.572;10.174;2023-06-22T03:38:27;6.90;;;6.30;;
3297;SDS011;1661;53.572;10.174;2023-06-22T03:40:54;9.87;;;8.87;;
3297;SDS011;1661;53.572;10.174;2023-06-22T03:43:22;10.87;;;9.40;;
3297;SDS011;1661;53.572;10.174;2023-06-22T03:45:49;7.23;;;6.50;;
3297;SDS011;1661;53.572;10.174;2023-06-22T03:48:17;8.37;;;7.50;;
3297;SDS011;1661;53.572;10.174;2023-06-22T03:50:44;8.60;;;7.80;;
3297;SDS011;1661;53.572;10.174;2023-06-22T03:53:11;9.10;;;8.10;;
3297;SDS011;1661;53.572;10.174;2023-06-22T03:55:40;11.20;;;8.47;;
3297;SDS011;1661;53.572;10.174;2023-06-22T03:58:13;10.23;;;9.30;;
3297;SDS011;1661;53.572;10.174;2023-06-22T04:00:40;11.73;;;10.23;;
3297;SDS011;1661;53.572;10.174;2023-06-22T04:03:07;9.23;;;8.43;;
3297;SDS011;1661;53.572;10.174;2023-06-22T04:05:35;9.27;;;8.03;;
3297;SDS011;1661;53.572;10.174;2023-06-22T04:08:02;6.80;;;5.80;;
3297;SDS011;1661;53.572;10.174;2023-06-22T04:10:28;7.50;;;6.80;;
3297;SDS011;1661;53.572;10.174;2023-06-22T04:12:55;7.90;;;6.87;;
3297;SDS011;1661;53.572;10.174;2023-06-22T04:15:22;4.80;;;4.50;;
3297;SDS011;1661;53.572;10.174;2023-06-22T04:17:49;9.93;;;5.90;;
3297;SDS011;1661;53.572;10.174;2023-06-22T04:20:16;6.27;;;5.63;;
3297;SDS011;1661;53.572;10.174;2023-06-22T04:22:44;9.13;;;6.73;;
3297;SDS011;1661;53.572;10.174;2023-06-22T04:25:11;5.93;;;5.43;;
3297;SDS011;1661;53.572;10.174;2023-06-22T04:27:37;5.70;;;5.20;;
3297;SDS011;1661;53.572;10.174;2023-06-22T04:30:06;8.20;;;7.37;;
3297;SDS011;1661;53.572;10.174;2023-06-22T04:32:34;7.83;;;5.60;;
3297;SDS011;1661;53.572;10.174;2023-06-22T04:35:01;10.33;;;7.97;;
3297;SDS011;1661;53.572;10.174;2023-06-22T04:37:29;9.70;;;8.43;;
3297;SDS011;1661;53.572;10.174;2023-06-22T04:39:58;5.33;;;4.93;;
3297;SDS011;1661;53.572;10.174;2023-06-22T04:42:25;6.80;;;6.20;;
3297;SDS011;1661;53.572;10.174;2023-06-22T04:44:52;9.13;;;6.30;;
3297;SDS011;1661;53.572;10.174;2023-06-22T04:47:19;6.97;;;6.37;;
3297;SDS011;1661;53.572;10.174;2023-06-22T04:49:46;6.70;;;5.30;;
3297;SDS011;1661;53.572;10.174;2023-06-22T04:52:13;7.43;;;6.70;;
3297;SDS011;1661;53.572;10.174;2023-06-22T04:54:42;7.80;;;7.10;;
3297;SDS011;1661;53.572;10.174;2023-06-22T04:57:14;6.30;;;5.70;;
3297;SDS011;1661;53.572;10.174;2023-06-22T04:59:41;9.33;;;6.33;;
3297;SDS011;1661;53.572;10.174;2023-06-22T05:02:08;7.73;;;6.93;;
3297;SDS011;1661;53.572;10.174;2023-06-22T05:04:35;10.80;;;7.60;;
3297;SDS011;1661;53.572;10.174;2023-06-22T05:07:03;7.00;;;5.97;;
3297;SDS011;1661;53.572;10.174;2023-06-22T05:09:30;5.67;;;5.10;;
3297;SDS011;1661;53.572;10.174;2023-06-22T05:11:58;9.03;;;6.90;;
3297;SDS011;1661;53.572;10.174;2023-06-22T05:14:28;7.47;;;6.70;;
3297;SDS011;1661;53.572;10.174;2023-06-22T05:16:55;11.43;;;7.87;;
3297;SDS011;1661;53.572;10.174;2023-06-22T05:19:24;8.20;;;7.50;;
3297;SDS011;1661;53.572;10.174;2023-06-22T05:21:56;9.37;;;7.90;;
3297;SDS011;1661;53.572;10.174;2023-06-22T05:24:23;7.93;;;7.20;;
3297;SDS011;1661;53.572;10.174;2023-06-22T05:26:50;7.97;;;6.90;;
3297;SDS011;1661;53.572;10.174;2023-06-22T05:29:16;7.30;;;6.10;;
3297;SDS011;1661;53.572;10.174;2023-06-22T05:31:44;6.33;;;5.60;;
3297;SDS011;1661;53.572;10.174;2023-06-22T05:34:11;11.63;;;6.40;;
3297;SDS011;1661;53.572;10.174;2023-06-22T05:36:38;13.83;;;7.80;;
3297;SDS011;1661;53.572;10.174;2023-06-22T05:39:10;9.30;;;7.10;;
3297;SDS011;1661;53.572;10.174;2023-06-22T05:41:38;6.80;;;5.70;;
3297;SDS011;1661;53.572;10.174;2023-06-22T05:44:05;10.70;;;6.40;;
3297;SDS011;1661;53.572;10.174;2023-06-22T05:46:32;8.40;;;7.60;;
3297;SDS011;1661;53.572;10.174;2023-06-22T05:49:00;8.43;;;7.47;;
3297;SDS011;1661;53.572;10.174;2023-06-22T05:51:27;8.37;;;7.43;;
3297;SDS011;1661;53.572;10.174;2023-06-22T05:53:53;6.37;;;5.73;;
3297;SDS011;1661;53.572;10.174;2023-06-22T05:56:20;7.47;;;5.10;;
3297;SDS011;1661;53.572;10.174;2023-06-22T05:58:47;4.87;;;4.47;;
3297;SDS011;1661;53.572;10.174;2023-06-22T06:01:14;7.30;;;4.63;;
3297;SDS011;1661;53.572;10.174;2023-06-22T06:03:41;5.13;;;4.70;;
3297;SDS011;1661;53.572;10.174;2023-06-22T06:06:10;5.37;;;4.87;;
3297;SDS011;1661;53.572;10.174;2023-06-22T06:08:37;5.63;;;4.87;;
3297;SDS011;1661;53.572;10.174;2023-06-22T06:11:04;5.93;;;4.50;;
3297;SDS011;1661;53.572;10.174;2023-06-22T06:13:31;9.20;;;5.60;;
3297;SDS011;1661;53.572;10.174;2023-06-22T06:15:58;6.67;;;5.40;;
3297;SDS011;1661;53.572;10.174;2023-06-22T06:18:24;5.17;;;4.67;;
3297;SDS011;1661;53.572;10.174;2023-06-22T06:20:51;6.17;;;4.33;;
3297;SDS011;1661;53.572;10.174;2023-06-22T06:23:19;5.00;;;4.10;;
3297;SDS011;1661;53.572;10.174;2023-06-22T06:25:46;6.43;;;4.87;;
3297;SDS011;1661;53.572;10.174;2023-06-22T06:28:13;6.93;;;5.23;;
3297;SDS011;1661;53.572;10.174;2023-06-22T06:30:40;5.17;;;4.30;;
3297;SDS011;1661;53.572;10.174;2023-06-22T06:33:07;7.33;;;5.47;;
3297;SDS011;1661;53.572;10.174;2023-06-22T06:35:34;4.80;;;4.30;;
3297;SDS011;1661;53.572;10.174;2023-06-22T06:38:01;6.40;;;4.80;;
3297;SDS011;1661;53.572;10.174;2023-06-22T06:40:29;6.73;;;5.67;;
3297;SDS011;1661;53.572;10.174;2023-06-22T06:42:56;9.33;;;5.27;;
3297;SDS011;1661;53.572;10.174;2023-06-22T06:45:23;6.20;;;4.80;;
3297;SDS011;1661;53.572;10.174;2023-06-22T06:47:53;4.00;;;3.70;;
3297;SDS011;1661;53.572;10.174;2023-06-22T06:50:20;5.10;;;4.70;;
3297;SDS011;1661;53.572;10.174;2023-06-22T06:52:47;4.20;;;3.90;;
3297;SDS011;1661;53.572;10.174;2023-06-22T06:55:15;5.20;;;4.80;;
3297;SDS011;1661;53.572;10.174;2023-06-22T06:57:43;5.57;;;4.27;;
3297;SDS011;1661;53.572;10.174;2023-06-22T07:00:13;7.50;;;4.53;;
3297;SDS011;1661;53.572;10.174;2023-06-22T07:02:42;5.67;;;5.13;;
3297;SDS011;1661;53.572;10.174;2023-06-22T07:05:09;5.60;;;4.77;;
3297;SDS011;1661;53.572;10.174;2023-06-22T07:07:37;6.73;;;5.50;;
3297;SDS011;1661;53.572;10.174;2023-06-22T07:10:07;8.70;;;5.77;;
3297;SDS011;1661;53.572;10.174;2023-06-22T07:12:35;4.77;;;4.37;;
3297;SDS011;1661;53.572;10.174;2023-06-22T07:15:04;5.80;;;5.30;;
3297;SDS011;1661;53.572;10.174;2023-06-22T07:17:33;5.60;;;4.97;;
3297;SDS011;1661;53.572;10.174;2023-06-22T07:20:00;5.60;;;4.97;;
3297;SDS011;1661;53.572;10.174;2023-06-22T07:22:27;6.47;;;4.87;;
3297;SDS011;1661;53.572;10.174;2023-06-22T07:24:54;4.80;;;4.40;;
3297;SDS011;1661;53.572;10.174;2023-06-22T07:27:21;5.43;;;4.90;;
3297;SDS011;1661;53.572;10.174;2023-06-22T07:29:47;4.73;;;4.33;;
3297;SDS011;1661;53.572;10.174;2023-06-22T07:32:16;6.97;;;5.30;;
3297;SDS011;1661;53.572;10.174;2023-06-22T07:34:42;7.03;;;5.30;;
3297;SDS011;1661;53.572;10.174;2023-06-22T07:37:09;4.93;;;4.47;;
3297;SDS011;1661;53.572;10.174;2023-06-22T07:39:36;4.87;;;4.50;;
3297;SDS011;1661;53.572;10.174;2023-06-22T07:42:03;6.43;;;5.80;;
3297;SDS011;1661;53.572;10.174;2023-06-22T07:44:30;7.50;;;4.27;;
3297;SDS011;1661;53.572;10.174;2023-06-22T07:46:57;5.83;;;3.77;;
3297;SDS011;1661;53.572;10.174;2023-06-22T07:49:25;5.30;;;4.80;;
3297;SDS011;1661;53.572;10.174;2023-06-22T07:51:52;4.93;;;4.53;;
3297;SDS011;1661;53.572;10.174;2023-06-22T07:54:18;4.13;;;3.70;;
3297;SDS011;1661;53.572;10.174;2023-06-22T07:56:46;7.60;;;4.97;;
3297;SDS011;1661;53.572;10.174;2023-06-22T07:59:12;6.47;;;5.03;;
3297;SDS011;1661;53.572;10.174;2023-06-22T08:01:39;4.23;;;3.93;;
3297;SDS011;1661;53.572;10.174;2023-06-22T08:04:06;4.40;;;4.00;;
3297;SDS011;1661;53.572;10.174;2023-06-22T08:06:35;3.77;;;3.23;;
3297;SDS011;1661;53.572;10.174;2023-06-22T08:09:01;6.43;;;4.87;;
3297;SDS011;1661;53.572;10.174;2023-06-22T08:11:29;6.53;;;4.50;;
3297;SDS011;1661;53.572;10.174;2023-06-22T08:13:55;6.20;;;4.00;;
3297;SDS011;1661;53.572;10.174;2023-06-22T08:16:23;5.50;;;3.47;;
3297;SDS011;1661;53.572;10.174;2023-06-22T08:18:50;5.57;;;4.40;;
3297;SDS011;1661;53.572;10.174;2023-06-22T08:21:17;3.70;;;3.40;;
3297;SDS011;1661;53.572;10.174;2023-06-22T08:23:45;4.10;;;3.50;;
3297;SDS011;1661;53.572;10.174;2023-06-22T08:26:12;5.00;;;3.40;;
3297;SDS011;1661;53.572;10.174;2023-06-22T08:28:38;3.60;;;3.30;;
3297;SDS011;1661;53.572;10.174;2023-06-22T08:31:05;4.33;;;3.57;;
3297;SDS011;1661;53.572;10.174;2023-06-22T08:33:32;4.23;;;3.83;;
3297;SDS011;1661;53.572;10.174;2023-06-22T08:35:59;3.83;;;3.30;;
3297;SDS011;1661;53.572;10.174;2023-06-22T08:38:25;4.03;;;3.17;;
3297;SDS011;1661;53.572;10.174;2023-06-22T08:40:54;7.93;;;3.60;;
3297;SDS011;1661;53.572;10.174;2023-06-22T08:43:20;3.43;;;2.97;;
3297;SDS011;1661;53.572;10.174;2023-06-22T08:45:47;3.50;;;2.77;;
3297;SDS011;1661;53.572;10.174;2023-06-22T08:48:14;9.30;;;3.90;;
3297;SDS011;1661;53.572;10.174;2023-06-22T08:50:41;4.13;;;3.47;;
3297;SDS011;1661;53.572;10.174;2023-06-22T08:53:07;3.40;;;3.10;;
3297;SDS011;1661;53.572;10.174;2023-06-22T08:55:34;3.93;;;3.63;;
3297;SDS011;1661;53.572;10.174;2023-06-22T08:58:02;2.77;;;2.47;;
3297;SDS011;1661;53.572;10.174;2023-06-22T09:00:30;3.87;;;3.47;;
3297;SDS011;1661;53.572;10.174;2023-06-22T09:02:59;2.83;;;2.63;;
3297;SDS011;1661;53.572;10.174;2023-06-22T09:05:26;4.40;;;3.43;;
3297;SDS011;1661;53.572;10.174;2023-06-22T09:07:53;3.90;;;3.30;;
3297;SDS011;1661;53.572;10.174;2023-06-22T09:10:20;3.93;;;2.87;;
3297;SDS011;1661;53.572;10.174;2023-06-22T09:12:47;6.10;;;3.07;;
3297;SDS011;1661;53.572;10.174;2023-06-22T09:15:15;4.50;;;3.43;;
3297;SDS011;1661;53.572;10.174;2023-06-22T09:17:43;3.30;;;3.00;;
3297;SDS011;1661;53.572;10.174;2023-06-22T09:20:11;3.70;;;2.73;;
3297;SDS011;1661;53.572;10.174;2023-06-22T09:22:38;3.70;;;3.40;;
3297;SDS011;1661;53.572;10.174;2023-06-22T09:25:05;4.20;;;2.80;;
3297;SDS011;1661;53.572;10.174;2023-06-22T09:27:32;4.37;;;3.03;;
3297;SDS011;1661;53.572;10.174;2023-06-22T09:29:59;3.70;;;3.40;;
3297;SDS011;1661;53.572;10.174;2023-06-22T09:32:28;5.23;;;2.90;;
3297;SDS011;1661;53.572;10.174;2023-06-22T09:34:54;4.67;;;4.10;;
3297;SDS011;1661;53.572;10.174;2023-06-22T09:37:21;8.20;;;3.43;;
3297;SDS011;1661;53.572;10.174;2023-06-22T09:39:48;3.43;;;3.23;;
3297;SDS011;1661;53.572;10.174;2023-06-22T09:42:14;4.30;;;3.77;;
3297;SDS011;1661;53.572;10.174;2023-06-22T09:44:41;7.87;;;4.10;;
3297;SDS011;1661;53.572;10.174;2023-06-22T09:47:08;4.80;;;3.53;;
3297;SDS011;1661;53.572;10.174;2023-06-22T09:49:36;3.67;;;3.37;;
3297;SDS011;1661;53.572;10.174;2023-06-22T09:52:03;4.57;;;4.17;;
3297;SDS011;1661;53.572;10.174;2023-06-22T09:54:31;5.23;;;4.30;;
3297;SDS011;1661;53.572;10.174;2023-06-22T09:56:57;5.00;;;4.23;;
3297;SDS011;1661;53.572;10.174;2023-06-22T09:59:24;10.73;;;3.70;;
3297;SDS011;1661;53.572;10.174;2023-06-22T10:01:51;5.60;;;3.67;;
3297;SDS011;1661;53.572;10.174;2023-06-22T10:04:18;3.27;;;2.97;;
3297;SDS011;1661;53.572;10.174;2023-06-22T10:06:46;4.50;;;4.10;;
3297;SDS011;1661;53.572;10.174;2023-06-22T10:09:15;3.80;;;3.43;;
3297;SDS011;1661;53.572;10.174;2023-06-22T10:11:42;4.37;;;3.97;;
3297;SDS011;1661;53.572;10.174;2023-06-22T10:14:09;5.80;;;3.40;;
3297;SDS011;1661;53.572;10.174;2023-06-22T10:16:36;4.30;;;3.80;;
3297;SDS011;1661;53.572;10.174;2023-06-22T10:19:03;5.13;;;3.70;;
3297;SDS011;1661;53.572;10.174;2023-06-22T10:21:29;3.97;;;3.67;;
3297;SDS011;1661;53.572;10.174;2023-06-22T10:23:58;4.40;;;4.00;;
3297;SDS011;1661;53.572;10.174;2023-06-22T10:26:30;4.27;;;3.10;;
3297;SDS011;1661;53.572;10.174;2023-06-22T10:28:57;3.73;;;3.10;;
3297;SDS011;1661;53.572;10.174;2023-06-22T10:31:24;5.00;;;3.87;;
3297;SDS011;1661;53.572;10.174;2023-06-22T10:33:52;2.77;;;2.53;;
3297;SDS011;1661;53.572;10.174;2023-06-22T10:36:19;4.37;;;4.07;;
3297;SDS011;1661;53.572;10.174;2023-06-22T10:38:46;4.90;;;4.50;;
3297;SDS011;1661;53.572;10.174;2023-06-22T10:41:15;3.70;;;3.40;;
3297;SDS011;1661;53.572;10.174;2023-06-22T10:43:42;3.90;;;3.53;;
3297;SDS011;1661;53.572;10.174;2023-06-22T10:46:09;3.70;;;3.40;;
3297;SDS011;1661;53.572;10.174;2023-06-22T10:48:35;4.90;;;3.80;;
3297;SDS011;1661;53.572;10.174;2023-06-22T10:51:02;5.00;;;4.17;;
3297;SDS011;1661;53.572;10.174;2023-06-22T10:53:29;3.57;;;3.03;;
3297;SDS011;1661;53.572;10.174;2023-06-22T10:55:56;4.97;;;4.30;;
3297;SDS011;1661;53.572;10.174;2023-06-22T10:58:24;4.07;;;3.77;;
3297;SDS011;1661;53.572;10.174;2023-06-22T11:00:51;3.93;;;3.50;;
3297;SDS011;1661;53.572;10.174;2023-06-22T11:03:18;5.30;;;3.70;;
3297;SDS011;1661;53.572;10.174;2023-06-22T11:05:45;5.40;;;4.90;;
3297;SDS011;1661;53.572;10.174;2023-06-22T11:08:12;4.20;;;3.50;;
3297;SDS011;1661;53.572;10.174;2023-06-22T11:10:39;4.33;;;3.93;;
3297;SDS011;1661;53.572;10.174;2023-06-22T11:13:06;5.50;;;4.47;;
3297;SDS011;1661;53.572;10.174;2023-06-22T11:15:36;6.60;;;4.60;;
3297;SDS011;1661;53.572;10.174;2023-06-22T11:18:03;4.20;;;3.30;;
3297;SDS011;1661;53.572;10.174;2023-06-22T11:20:32;3.57;;;3.27;;
3297;SDS011;1661;53.572;10.174;2023-06-22T11:23:03;4.77;;;4.37;;
3297;SDS011;1661;53.572;10.174;2023-06-22T11:25:30;5.30;;;4.90;;
3297;SDS011;1661;53.572;10.174;2023-06-22T11:27:57;4.93;;;4.40;;
3297;SDS011;1661;53.572;10.174;2023-06-22T11:30:24;5.00;;;4.50;;
3297;SDS011;1661;53.572;10.174;2023-06-22T11:32:52;9.77;;;5.50;;
3297;SDS011;1661;53.572;10.174;2023-06-22T11:35:19;5.13;;;4.63;;
3297;SDS011;1661;53.572;10.174;2023-06-22T11:37:45;6.97;;;6.27;;
3297;SDS011;1661;53.572;10.174;2023-06-22T11:40:12;5.53;;;5.13;;
3297;SDS011;1661;53.572;10.174;2023-06-22T11:42:39;6.23;;;5.80;;
3297;SDS011;1661;53.572;10.174;2023-06-22T11:45:06;8.27;;;4.53;;
3297;SDS011;1661;53.572;10.174;2023-06-22T11:47:33;6.00;;;5.50;;
3297;SDS011;1661;53.572;10.174;2023-06-22T11:50:02;7.80;;;4.50;;
3297;SDS011;1661;53.572;10.174;2023-06-22T11:52:30;4.50;;;4.10;;
3297;SDS011;1661;53.572;10.174;2023-06-22T11:54:56;7.20;;;5.50;;
3297;SDS011;1661;53.572;10.174;2023-06-22T11:57:24;5.60;;;5.10;;
3297;SDS011;1661;53.572;10.174;2023-06-22T11:59:51;5.03;;;4.63;;
3297;SDS011;1661;53.572;10.174;2023-06-22T12:02:18;6.80;;;5.57;;
3297;SDS011;1661;53.572;10.174;2023-06-22T12:04:44;5.63;;;5.23;;
3297;SDS011;1661;53.572;10.174;2023-06-22T12:07:12;6.17;;;5.57;;
3297;SDS011;1661;53.572;10.174;2023-06-22T12:09:39;5.50;;;5.10;;
3297;SDS011;1661;53.572;10.174;2023-06-22T12:12:06;6.33;;;5.70;;
3297;SDS011;1661;53.572;10.174;2023-06-22T12:14:33;6.20;;;5.70;;
3297;SDS011;1661;53.572;10.174;2023-06-22T12:17:00;7.40;;;5.47;;
3297;SDS011;1661;53.572;10.174;2023-06-22T12:19:27;5.87;;;5.37;;
3297;SDS011;1661;53.572;10.174;2023-06-22T12:21:54;4.50;;;4.10;;
3297;SDS011;1661;53.572;10.174;2023-06-22T12:24:22;4.60;;;4.30;;
3297;SDS011;1661;53.572;10.174;2023-06-22T12:26:49;4.63;;;4.23;;
3297;SDS011;1661;53.572;10.174;2023-06-22T12:29:16;5.80;;;5.40;;
3297;SDS011;1661;53.572;10.174;2023-06-22T12:31:42;4.30;;;3.80;;
3297;SDS011;1661;53.572;10.174;2023-06-22T12:34:09;4.93;;;4.53;;
3297;SDS011;1661;53.572;10.174;2023-06-22T12:36:36;5.33;;;4.93;;
3297;SDS011;1661;53.572;10.174;2023-06-22T12:39:03;4.87;;;4.47;;
3297;SDS011;1661;53.572;10.174;2023-06-22T12:41:31;4.50;;;4.10;;
3297;SDS011;1661;53.572;10.174;2023-06-22T12:43:57;8.47;;;5.10;;
3297;SDS011;1661;53.572;10.174;2023-06-22T12:46:24;5.87;;;5.37;;
3297;SDS011;1661;53.572;10.174;2023-06-22T12:48:51;4.37;;;4.07;;
3297;SDS011;1661;53.572;10.174;2023-06-22T12:51:21;6.50;;;5.90;;
3297;SDS011;1661;53.572;10.174;2023-06-22T12:53:48;5.70;;;5.30;;
3297;SDS011;1661;53.572;10.174;2023-06-22T12:56:15;4.83;;;3.57;;
3297;SDS011;1661;53.572;10.174;2023-06-22T12:58:43;5.47;;;5.07;;
3297;SDS011;1661;53.572;10.174;2023-06-22T13:01:09;4.80;;;4.50;;
3297;SDS011;1661;53.572;10.174;2023-06-22T13:03:36;5.60;;;4.50;;
3297;SDS011;1661;53.572;10.174;2023-06-22T13:06:03;5.60;;;5.20;;
3297;SDS011;1661;53.572;10.174;2023-06-22T13:08:30;5.80;;;5.40;;
3297;SDS011;1661;53.572;10.174;2023-06-22T13:10:57;4.27;;;3.97;;
3297;SDS011;1661;53.572;10.174;2023-06-22T13:13:23;5.67;;;5.03;;
3297;SDS011;1661;53.572;10.174;2023-06-22T13:15:53;6.77;;;4.70;;
3297;SDS011;1661;53.572;10.174;2023-06-22T13:18:20;5.13;;;4.73;;
3297;SDS011;1661;53.572;10.174;2023-06-22T13:20:46;6.50;;;5.40;;
3297;SDS011;1661;53.572;10.174;2023-06-22T13:23:13;4.93;;;4.30;;
3297;SDS011;1661;53.572;10.174;2023-06-22T13:25:40;5.63;;;5.23;;
3297;SDS011;1661;53.572;10.174;2023-06-22T13:28:07;4.33;;;4.03;;
3297;SDS011;1661;53.572;10.174;2023-06-22T13:30:35;5.23;;;4.90;;
3297;SDS011;1661;53.572;10.174;2023-06-22T13:33:03;5.30;;;4.87;;
3297;SDS011;1661;53.572;10.174;2023-06-22T13:35:30;6.00;;;5.03;;
3297;SDS011;1661;53.572;10.174;2023-06-22T13:37:56;4.70;;;4.30;;
3297;SDS011;1661;53.572;10.174;2023-06-22T13:40:23;4.60;;;4.20;;
3297;SDS011;1661;53.572;10.174;2023-06-22T13:42:50;6.10;;;5.30;;
3297;SDS011;1661;53.572;10.174;2023-06-22T13:45:17;8.77;;;5.60;;
3297;SDS011;1661;53.572;10.174;2023-06-22T13:47:45;6.03;;;5.50;;
3297;SDS011;1661;53.572;10.174;2023-06-22T13:50:13;9.53;;;6.23;;
3297;SDS011;1661;53.572;10.174;2023-06-22T13:52:40;5.97;;;5.47;;
3297;SDS011;1661;53.572;10.174;2023-06-22T13:55:07;5.30;;;4.90;;
3297;SDS011;1661;53.572;10.174;2023-06-22T13:57:35;6.27;;;5.80;;
3297;SDS011;1661;53.572;10.174;2023-06-22T14:00:02;5.60;;;5.13;;
3297;SDS011;1661;53.572;10.174;2023-06-22T14:02:30;6.33;;;5.93;;
3297;SDS011;1661;53.572;10.174;2023-06-22T14:04:57;4.73;;;4.43;;
3297;SDS011;1661;53.572;10.174;2023-06-22T14:07:25;8.23;;;4.63;;
3297;SDS011;1661;53.572;10.174;2023-06-22T14:09:52;4.90;;;4.50;;
3297;SDS011;1661;53.572;10.174;2023-06-22T14:12:18;5.17;;;4.73;;
3297;SDS011;1661;53.572;10.174;2023-06-22T14:14:45;5.77;;;5.37;;
3297;SDS011;1661;53.572;10.174;2023-06-22T14:17:12;4.67;;;4.37;;
3297;SDS011;1661;53.572;10.174;2023-06-22T14:19:39;5.17;;;4.67;;
3297;SDS011;1661;53.572;10.174;2023-06-22T14:22:06;7.00;;;6.50;;
3297;SDS011;1661;53.572;10.174;2023-06-22T14:24:34;5.00;;;4.60;;
3297;SDS011;1661;53.572;10.174;2023-06-22T14:27:00;5.37;;;4.87;;
3297;SDS011;1661;53.572;10.174;2023-06-22T14:29:28;5.00;;;4.60;;
3297;SDS011;1661;53.572;10.174;2023-06-22T14:31:55;8.43;;;5.73;;
3297;SDS011;1661;53.572;10.174;2023-06-22T14:34:21;7.07;;;6.47;;
3297;SDS011;1661;53.572;10.174;2023-06-22T14:36:49;6.93;;;6.30;;
3297;SDS011;1661;53.572;10.174;2023-06-22T14:39:15;7.40;;;6.77;;
3297;SDS011;1661;53.572;10.174;2023-06-22T14:41:43;5.50;;;5.10;;
3297;SDS011;1661;53.572;10.174;2023-06-22T14:44:10;6.30;;;5.80;;
3297;SDS011;1661;53.572;10.174;2023-06-22T14:46:37;5.37;;;4.87;;
3297;SDS011;1661;53.572;10.174;2023-06-22T14:49:04;6.97;;;6.30;;
3297;SDS011;1661;53.572;10.174;2023-06-22T14:51:30;6.47;;;5.47;;
3297;SDS011;1661;53.572;10.174;2023-06-22T14:53:57;6.93;;;6.37;;
3297;SDS011;1661;53.572;10.174;2023-06-22T14:56:24;5.40;;;4.90;;
3297;SDS011;1661;53.572;10.174;2023-06-22T14:58:52;7.23;;;6.43;;
3297;SDS011;1661;53.572;10.174;2023-06-22T15:01:19;6.40;;;5.80;;